sensor_id;sensor_type;location;lat;lon;timestamp;pressure;altitude;pressure_sealevel;temperature;humidity
38630;BME280;24384;51.988;4.644;2022-12-18T00:00:28;102966.34;;;-4.43;90.55
38630;BME280;24384;51.988;4.644;2022-12-18T00:03:09;102946.78;;;-4.55;90.71
38630;BME280;24384;51.988;4.644;2022-12-18T00:06:02;102937.09;;;-4.72;90.79
38630;BME280;24384;51.988;4.644;2022-12-18T00:08:49;102937.69;;;-4.63;90.85
38630;BME280;24384;51.988;4.644;2022-12-18T00:11:35;102938.19;;;-4.69;90.75
38630;BME280;24384;51.988;4.644;2022-12-18T00:14:13;102939.00;;;-4.83;90.56
38630;BME280;24384;51.988;4.644;2022-12-18T00:17:09;102934.72;;;-4.82;91.26
38630;BME280;24384;51.988;4.644;2022-12-18T00:19:55;102940.38;;;-4.88;91.22
38630;BME280;24384;51.988;4.644;2022-12-18T00:22:41;102941.47;;;-4.98;91.31
38630;BME280;24384;51.988;4.644;2022-12-18T00:25:22;102945.72;;;-5.12;91.92
38630;BME280;24384;51.988;4.644;2022-12-18T00:27:58;102934.25;;;-5.04;91.55
38630;BME280;24384;51.988;4.644;2022-12-18T00:30:44;102942.38;;;-5.11;91.92
38630;BME280;24384;51.988;4.644;2022-12-18T00:33:32;102944.84;;;-5.12;92.40
38630;BME280;24384;51.988;4.644;2022-12-18T00:36:21;102934.44;;;-5.00;92.44
38630;BME280;24384;51.988;4.644;2022-12-18T00:39:10;102933.94;;;-4.81;91.70
38630;BME280;24384;51.988;4.644;2022-12-18T00:41:58;102934.63;;;-4.84;91.60
38630;BME280;24384;51.988;4.644;2022-12-18T00:44:57;102938.81;;;-4.99;91.79
38630;BME280;24384;51.988;4.644;2022-12-18T00:47:36;102920.16;;;-4.82;92.10
38630;BME280;24384;51.988;4.644;2022-12-18T00:50:46;102928.91;;;-4.93;91.55
38630;BME280;24384;51.988;4.644;2022-12-18T00:53:30;102938.78;;;-5.13;91.63
38630;BME280;24384;51.988;4.644;2022-12-18T00:56:09;102944.66;;;-5.15;91.74
38630;BME280;24384;51.988;4.644;2022-12-18T00:58:45;102947.03;;;-5.18;91.77
38630;BME280;24384;51.988;4.644;2022-12-18T01:01:24;102940.75;;;-5.22;92.25
38630;BME280;24384;51.988;4.644;2022-12-18T01:04:17;102938.50;;;-5.17;92.37
38630;BME280;24384;51.988;4.644;2022-12-18T01:06:54;102935.63;;;-5.09;92.23
38630;BME280;24384;51.988;4.644;2022-12-18T01:09:35;102932.84;;;-4.85;91.31
38630;BME280;24384;51.988;4.644;2022-12-18T01:12:21;102938.00;;;-4.85;90.67
38630;BME280;24384;51.988;4.644;2022-12-18T01:15:00;102947.03;;;-4.78;90.78
38630;BME280;24384;51.988;4.644;2022-12-18T01:17:39;102942.66;;;-4.66;90.34
38630;BME280;24384;51.988;4.644;2022-12-18T01:20:25;102955.53;;;-4.66;89.52
38630;BME280;24384;51.988;4.644;2022-12-18T01:23:13;102941.72;;;-4.67;89.83
38630;BME280;24384;51.988;4.644;2022-12-18T01:25:55;102949.47;;;-4.67;89.78
38630;BME280;24384;51.988;4.644;2022-12-18T01:28:42;102941.97;;;-5.17;90.25
38630;BME280;24384;51.988;4.644;2022-12-18T01:33:59;102954.63;;;-5.07;91.24
38630;BME280;24384;51.988;4.644;2022-12-18T01:36:45;102955.41;;;-4.94;90.46
38630;BME280;24384;51.988;4.644;2022-12-18T01:39:22;102964.63;;;-4.98;90.37
38630;BME280;24384;51.988;4.644;2022-12-18T01:42:10;102962.75;;;-5.00;90.42
38630;BME280;24384;51.988;4.644;2022-12-18T01:48:00;102977.41;;;-4.99;89.74
38630;BME280;24384;51.988;4.644;2022-12-18T01:50:41;102969.69;;;-4.86;89.25
38630;BME280;24384;51.988;4.644;2022-12-18T01:53:20;102975.91;;;-5.23;90.03
38630;BME280;24384;51.988;4.644;2022-12-18T01:56:05;102975.81;;;-5.11;90.63
38630;BME280;24384;51.988;4.644;2022-12-18T01:59:05;102980.97;;;-4.97;89.87
38630;BME280;24384;51.988;4.644;2022-12-18T02:01:58;102985.81;;;-5.15;89.35
38630;BME280;24384;51.988;4.644;2022-12-18T02:04:27;102997.41;;;-5.09;90.09
38630;BME280;24384;51.988;4.644;2022-12-18T02:10:29;102982.13;;;-5.19;89.46
38630;BME280;24384;51.988;4.644;2022-12-18T02:16:20;102974.72;;;-5.01;88.72
38630;BME280;24384;51.988;4.644;2022-12-18T02:19:50;102973.53;;;-5.19;89.14
38630;BME280;24384;51.988;4.644;2022-12-18T02:22:37;102971.25;;;-5.15;88.82
38630;BME280;24384;51.988;4.644;2022-12-18T02:25:21;102976.72;;;-4.97;88.86
38630;BME280;24384;51.988;4.644;2022-12-18T02:27:56;102969.78;;;-5.25;89.05
38630;BME280;24384;51.988;4.644;2022-12-18T02:30:42;102969.47;;;-5.16;89.37
38630;BME280;24384;51.988;4.644;2022-12-18T02:33:14;102971.84;;;-5.19;89.41
38630;BME280;24384;51.988;4.644;2022-12-18T02:35:51;102976.63;;;-4.98;88.95
38630;BME280;24384;51.988;4.644;2022-12-18T02:41:32;102972.25;;;-4.99;88.39
38630;BME280;24384;51.988;4.644;2022-12-18T02:44:16;102973.25;;;-4.97;88.76
38630;BME280;24384;51.988;4.644;2022-12-18T02:46:53;102951.97;;;-4.81;88.62
38630;BME280;24384;51.988;4.644;2022-12-18T02:50:06;102946.81;;;-4.81;87.59
38630;BME280;24384;51.988;4.644;2022-12-18T02:56:13;102940.97;;;-5.06;87.07
38630;BME280;24384;51.988;4.644;2022-12-18T02:58:58;102951.34;;;-5.44;88.10
38630;BME280;24384;51.988;4.644;2022-12-18T03:02:01;102932.94;;;-5.24;88.14
38630;BME280;24384;51.988;4.644;2022-12-18T03:05:07;102930.38;;;-5.24;86.96
38630;BME280;24384;51.988;4.644;2022-12-18T03:07:53;102916.16;;;-5.18;87.69
38630;BME280;24384;51.988;4.644;2022-12-18T03:10:40;102921.00;;;-5.23;87.60
38630;BME280;24384;51.988;4.644;2022-12-18T03:13:22;102910.19;;;-5.17;87.70
38630;BME280;24384;51.988;4.644;2022-12-18T03:16:04;102898.22;;;-5.04;86.81
38630;BME280;24384;51.988;4.644;2022-12-18T03:19:11;102902.28;;;-5.07;86.89
38630;BME280;24384;51.988;4.644;2022-12-18T03:21:53;102909.03;;;-5.09;86.29
38630;BME280;24384;51.988;4.644;2022-12-18T03:24:31;102902.88;;;-5.25;86.40
38630;BME280;24384;51.988;4.644;2022-12-18T03:27:06;102908.03;;;-5.38;86.25
38630;BME280;24384;51.988;4.644;2022-12-18T03:29:51;102911.91;;;-5.31;86.48
38630;BME280;24384;51.988;4.644;2022-12-18T03:32:31;102907.72;;;-5.56;87.06
38630;BME280;24384;51.988;4.644;2022-12-18T03:35:24;102909.69;;;-5.65;87.44
38630;BME280;24384;51.988;4.644;2022-12-18T03:37:56;102914.06;;;-5.51;86.76
38630;BME280;24384;51.988;4.644;2022-12-18T03:49:10;102904.34;;;-5.55;86.85
38630;BME280;24384;51.988;4.644;2022-12-18T03:52:25;102898.53;;;-5.52;86.61
38630;BME280;24384;51.988;4.644;2022-12-18T03:55:09;102887.44;;;-5.51;87.27
38630;BME280;24384;51.988;4.644;2022-12-18T03:57:40;102883.41;;;-5.34;87.44
38630;BME280;24384;51.988;4.644;2022-12-18T04:00:20;102882.31;;;-5.25;86.89
38630;BME280;24384;51.988;4.644;2022-12-18T04:03:06;102883.59;;;-5.18;86.29
38630;BME280;24384;51.988;4.644;2022-12-18T04:05:48;102894.94;;;-5.14;85.70
38630;BME280;24384;51.988;4.644;2022-12-18T04:08:34;102887.03;;;-5.44;85.72
38630;BME280;24384;51.988;4.644;2022-12-18T04:11:17;102892.31;;;-5.29;85.76
38630;BME280;24384;51.988;4.644;2022-12-18T04:14:17;102895.66;;;-5.17;85.51
38630;BME280;24384;51.988;4.644;2022-12-18T04:16:57;102892.69;;;-5.23;85.44
38630;BME280;24384;51.988;4.644;2022-12-18T04:19:35;102895.06;;;-5.26;85.47
38630;BME280;24384;51.988;4.644;2022-12-18T04:22:14;102894.88;;;-5.29;85.50
38630;BME280;24384;51.988;4.644;2022-12-18T04:28:07;102897.25;;;-5.32;84.33
38630;BME280;24384;51.988;4.644;2022-12-18T04:30:46;102895.03;;;-5.66;84.96
38630;BME280;24384;51.988;4.644;2022-12-18T04:33:24;102895.13;;;-5.65;84.82
38630;BME280;24384;51.988;4.644;2022-12-18T04:36:02;102908.41;;;-5.59;85.08
38630;BME280;24384;51.988;4.644;2022-12-18T04:38:33;102907.13;;;-5.65;84.93
38630;BME280;24384;51.988;4.644;2022-12-18T04:41:09;102902.91;;;-5.77;85.29
38630;BME280;24384;51.988;4.644;2022-12-18T04:43:45;102919.97;;;-5.65;85.25
38630;BME280;24384;51.988;4.644;2022-12-18T04:46:21;102910.47;;;-5.66;85.37
38630;BME280;24384;51.988;4.644;2022-12-18T04:49:00;102911.25;;;-5.67;85.64
38630;BME280;24384;51.988;4.644;2022-12-18T04:51:48;102911.81;;;-5.85;84.84
38630;BME280;24384;51.988;4.644;2022-12-18T04:54:44;102903.13;;;-6.12;85.42
38630;BME280;24384;51.988;4.644;2022-12-18T04:57:15;102908.03;;;-6.03;85.94
38630;BME280;24384;51.988;4.644;2022-12-18T04:59:54;102903.88;;;-5.88;85.03
38630;BME280;24384;51.988;4.644;2022-12-18T05:02:31;102907.72;;;-5.95;85.44
38630;BME280;24384;51.988;4.644;2022-12-18T05:05:17;102893.38;;;-6.04;84.97
38630;BME280;24384;51.988;4.644;2022-12-18T05:08:13;102901.00;;;-6.06;84.51
38630;BME280;24384;51.988;4.644;2022-12-18T05:10:41;102901.91;;;-6.05;84.74
38630;BME280;24384;51.988;4.644;2022-12-18T05:13:19;102903.25;;;-6.10;84.83
38630;BME280;24384;51.988;4.644;2022-12-18T05:16:01;102904.16;;;-6.10;84.20
38630;BME280;24384;51.988;4.644;2022-12-18T05:18:38;102907.59;;;-6.09;84.38
38630;BME280;24384;51.988;4.644;2022-12-18T05:21:16;102910.50;;;-5.91;84.33
38630;BME280;24384;51.988;4.644;2022-12-18T05:24:01;102903.22;;;-5.72;84.47
38630;BME280;24384;51.988;4.644;2022-12-18T05:26:39;102904.03;;;-5.60;84.11
38630;BME280;24384;51.988;4.644;2022-12-18T05:29:26;102891.00;;;-5.49;84.04
38630;BME280;24384;51.988;4.644;2022-12-18T05:32:08;102891.31;;;-5.45;82.52
38630;BME280;24384;51.988;4.644;2022-12-18T05:34:51;102896.81;;;-5.52;81.62
38630;BME280;24384;51.988;4.644;2022-12-18T05:37:30;102898.25;;;-5.44;81.76
38630;BME280;24384;51.988;4.644;2022-12-18T05:40:10;102895.06;;;-5.53;81.44
38630;BME280;24384;51.988;4.644;2022-12-18T05:42:47;102887.72;;;-5.60;80.37
38630;BME280;24384;51.988;4.644;2022-12-18T05:45:25;102890.78;;;-5.66;79.72
38630;BME280;24384;51.988;4.644;2022-12-18T05:48:01;102884.56;;;-5.69;80.44
38630;BME280;24384;51.988;4.644;2022-12-18T05:50:41;102882.84;;;-5.69;81.31
38630;BME280;24384;51.988;4.644;2022-12-18T05:53:20;102885.06;;;-5.62;81.40
38630;BME280;24384;51.988;4.644;2022-12-18T05:56:00;102880.97;;;-5.85;80.06
38630;BME280;24384;51.988;4.644;2022-12-18T05:58:37;102880.19;;;-5.84;79.14
38630;BME280;24384;51.988;4.644;2022-12-18T06:01:26;102883.63;;;-5.83;79.01
38630;BME280;24384;51.988;4.644;2022-12-18T06:04:07;102886.41;;;-5.80;79.01
38630;BME280;24384;51.988;4.644;2022-12-18T06:06:43;102886.72;;;-5.76;79.16
38630;BME280;24384;51.988;4.644;2022-12-18T06:09:25;102876.84;;;-5.69;80.04
38630;BME280;24384;51.988;4.644;2022-12-18T06:12:06;102873.28;;;-5.71;79.70
38630;BME280;24384;51.988;4.644;2022-12-18T06:14:38;102863.88;;;-5.71;79.85
38630;BME280;24384;51.988;4.644;2022-12-18T06:17:16;102860.22;;;-5.61;78.74
38630;BME280;24384;51.988;4.644;2022-12-18T06:19:54;102860.81;;;-5.79;79.03
38630;BME280;24384;51.988;4.644;2022-12-18T06:22:43;102849.44;;;-5.69;79.33
38630;BME280;24384;51.988;4.644;2022-12-18T06:25:26;102841.72;;;-5.69;79.98
38630;BME280;24384;51.988;4.644;2022-12-18T06:28:05;102839.84;;;-5.58;79.82
38630;BME280;24384;51.988;4.644;2022-12-18T06:30:45;102842.94;;;-5.50;79.11
38630;BME280;24384;51.988;4.644;2022-12-18T06:33:31;102848.97;;;-5.63;80.06
38630;BME280;24384;51.988;4.644;2022-12-18T06:36:12;102845.00;;;-5.58;77.57
38630;BME280;24384;51.988;4.644;2022-12-18T06:38:57;102841.53;;;-5.72;78.42
38630;BME280;24384;51.988;4.644;2022-12-18T06:41:41;102841.44;;;-5.87;78.23
38630;BME280;24384;51.988;4.644;2022-12-18T06:44:18;102848.53;;;-5.83;78.66
38630;BME280;24384;51.988;4.644;2022-12-18T06:47:11;102842.31;;;-6.00;78.88
38630;BME280;24384;51.988;4.644;2022-12-18T06:49:49;102838.97;;;-5.99;78.62
38630;BME280;24384;51.988;4.644;2022-12-18T06:52:33;102834.28;;;-6.04;78.50
38630;BME280;24384;51.988;4.644;2022-12-18T06:55:18;102825.28;;;-6.11;79.33
38630;BME280;24384;51.988;4.644;2022-12-18T06:58:00;102830.63;;;-6.08;78.80
38630;BME280;24384;51.988;4.644;2022-12-18T07:00:39;102816.81;;;-6.10;79.33
38630;BME280;24384;51.988;4.644;2022-12-18T07:03:24;102825.28;;;-6.11;78.74
38630;BME280;24384;51.988;4.644;2022-12-18T07:06:02;102813.72;;;-6.04;78.70
38630;BME280;24384;51.988;4.644;2022-12-18T07:08:41;102813.53;;;-6.07;78.76
38630;BME280;24384;51.988;4.644;2022-12-18T07:11:18;102802.38;;;-6.08;78.96
38630;BME280;24384;51.988;4.644;2022-12-18T07:13:57;102805.63;;;-6.10;78.38
38630;BME280;24384;51.988;4.644;2022-12-18T07:16:35;102800.16;;;-6.28;78.44
38630;BME280;24384;51.988;4.644;2022-12-18T07:19:12;102793.13;;;-6.31;78.57
38630;BME280;24384;51.988;4.644;2022-12-18T07:21:53;102782.00;;;-6.18;79.06
38630;BME280;24384;51.988;4.644;2022-12-18T07:24:21;102769.66;;;-6.24;79.74
38630;BME280;24384;51.988;4.644;2022-12-18T07:27:03;102759.78;;;-6.18;80.22
38630;BME280;24384;51.988;4.644;2022-12-18T07:29:39;102743.97;;;-6.10;79.98
38630;BME280;24384;51.988;4.644;2022-12-18T07:32:18;102748.53;;;-6.06;79.74
38630;BME280;24384;51.988;4.644;2022-12-18T07:34:55;102738.72;;;-6.12;80.50
38630;BME280;24384;51.988;4.644;2022-12-18T07:37:31;102730.13;;;-6.13;80.64
38630;BME280;24384;51.988;4.644;2022-12-18T07:40:10;102735.00;;;-6.04;80.07
38630;BME280;24384;51.988;4.644;2022-12-18T07:42:48;102736.09;;;-6.00;79.86
38630;BME280;24384;51.988;4.644;2022-12-18T07:45:24;102743.69;;;-6.02;78.77
38630;BME280;24384;51.988;4.644;2022-12-18T07:48:04;102753.06;;;-6.16;78.43
38630;BME280;24384;51.988;4.644;2022-12-18T07:50:40;102763.72;;;-6.23;77.92
38630;BME280;24384;51.988;4.644;2022-12-18T07:53:49;102769.56;;;-6.25;78.43
38630;BME280;24384;51.988;4.644;2022-12-18T07:56:40;102763.09;;;-6.45;78.89
38630;BME280;24384;51.988;4.644;2022-12-18T08:02:48;102754.09;;;-6.39;78.74
38630;BME280;24384;51.988;4.644;2022-12-18T08:05:39;102754.13;;;-6.25;79.02
38630;BME280;24384;51.988;4.644;2022-12-18T08:08:27;102752.16;;;-6.03;78.12
38630;BME280;24384;51.988;4.644;2022-12-18T08:11:25;102759.47;;;-5.96;77.67
38630;BME280;24384;51.988;4.644;2022-12-18T08:14:13;102743.66;;;-5.88;77.61
38630;BME280;24384;51.988;4.644;2022-12-18T08:20:33;102735.63;;;-5.80;77.87
38630;BME280;24384;51.988;4.644;2022-12-18T08:23:25;102739.22;;;-5.78;77.91
38630;BME280;24384;51.988;4.644;2022-12-18T08:26:24;102727.53;;;-5.72;77.59
38630;BME280;24384;51.988;4.644;2022-12-18T08:32:14;102727.13;;;-5.52;77.51
38630;BME280;24384;51.988;4.644;2022-12-18T08:35:02;102727.13;;;-5.52;77.46
38630;BME280;24384;51.988;4.644;2022-12-18T08:37:42;102730.78;;;-5.62;77.28
38630;BME280;24384;51.988;4.644;2022-12-18T08:40:19;102735.25;;;-5.59;76.79
38630;BME280;24384;51.988;4.644;2022-12-18T08:42:46;102737.91;;;-5.58;77.90
38630;BME280;24384;51.988;4.644;2022-12-18T08:45:34;102755.00;;;-5.58;77.00
38630;BME280;24384;51.988;4.644;2022-12-18T08:48:24;102771.63;;;-5.53;76.92
38630;BME280;24384;51.988;4.644;2022-12-18T08:51:02;102775.38;;;-5.48;76.81
38630;BME280;24384;51.988;4.644;2022-12-18T08:53:41;102779.41;;;-5.38;76.94
38630;BME280;24384;51.988;4.644;2022-12-18T08:56:20;102780.28;;;-5.24;76.63
38630;BME280;24384;51.988;4.644;2022-12-18T08:58:57;102773.34;;;-5.12;76.04
38630;BME280;24384;51.988;4.644;2022-12-18T09:01:34;102787.69;;;-5.15;76.05
38630;BME280;24384;51.988;4.644;2022-12-18T09:04:10;102783.53;;;-5.13;76.01
38630;BME280;24384;51.988;4.644;2022-12-18T09:06:58;102780.38;;;-5.09;75.70
38630;BME280;24384;51.988;4.644;2022-12-18T09:09:47;102764.06;;;-5.23;76.99
38630;BME280;24384;51.988;4.644;2022-12-18T09:12:28;102765.72;;;-5.24;76.88
38630;BME280;24384;51.988;4.644;2022-12-18T09:15:08;102769.84;;;-5.54;78.28
38630;BME280;24384;51.988;4.644;2022-12-18T09:17:44;102765.78;;;-5.37;78.65
38630;BME280;24384;51.988;4.644;2022-12-18T09:20:20;102762.53;;;-5.34;78.22
38630;BME280;24384;51.988;4.644;2022-12-18T09:23:03;102732.56;;;-5.19;78.23
38630;BME280;24384;51.988;4.644;2022-12-18T09:25:39;102717.19;;;-5.04;77.79
38630;BME280;24384;51.988;4.644;2022-12-18T09:28:17;102715.50;;;-5.04;77.91
38630;BME280;24384;51.988;4.644;2022-12-18T09:30:54;102707.56;;;-4.93;77.84
38630;BME280;24384;51.988;4.644;2022-12-18T09:33:37;102717.19;;;-5.04;77.77
38630;BME280;24384;51.988;4.644;2022-12-18T09:36:09;102737.78;;;-5.04;77.70
38630;BME280;24384;51.988;4.644;2022-12-18T09:38:50;102737.59;;;-5.07;78.03
38630;BME280;24384;51.988;4.644;2022-12-18T09:41:40;102729.59;;;-5.12;77.55
38630;BME280;24384;51.988;4.644;2022-12-18T09:44:27;102728.19;;;-5.07;77.99
38630;BME280;24384;51.988;4.644;2022-12-18T09:47:05;102719.84;;;-5.03;78.26
38630;BME280;24384;51.988;4.644;2022-12-18T09:49:49;102742.03;;;-5.05;78.63
38630;BME280;24384;51.988;4.644;2022-12-18T09:52:33;102743.44;;;-5.10;78.89
38630;BME280;24384;51.988;4.644;2022-12-18T09:55:33;102746.81;;;-5.11;78.86
38630;BME280;24384;51.988;4.644;2022-12-18T09:58:22;102738.47;;;-5.07;80.04
38630;BME280;24384;51.988;4.644;2022-12-18T10:00:53;102733.13;;;-5.10;79.95
38630;BME280;24384;51.988;4.644;2022-12-18T10:03:24;102719.84;;;-5.03;79.56
38630;BME280;24384;51.988;4.644;2022-12-18T10:08:33;102711.44;;;-5.00;79.05
38630;BME280;24384;51.988;4.644;2022-12-18T10:13:50;102720.78;;;-4.87;79.78
38630;BME280;24384;51.988;4.644;2022-12-18T10:16:39;102709.53;;;-4.74;79.02
38630;BME280;24384;51.988;4.644;2022-12-18T10:22:07;102684.59;;;-4.75;79.37
38630;BME280;24384;51.988;4.644;2022-12-18T10:24:39;102680.94;;;-4.79;80.11
38630;BME280;24384;51.988;4.644;2022-12-18T10:27:14;102675.72;;;-4.65;79.82
38630;BME280;24384;51.988;4.644;2022-12-18T10:29:42;102685.16;;;-4.66;78.98
38630;BME280;24384;51.988;4.644;2022-12-18T10:32:14;102683.91;;;-4.58;80.05
38630;BME280;24384;51.988;4.644;2022-12-18T10:34:40;102670.69;;;-4.49;79.40
38630;BME280;24384;51.988;4.644;2022-12-18T10:37:11;102672.53;;;-4.46;78.30
38630;BME280;24384;51.988;4.644;2022-12-18T10:39:39;102661.53;;;-4.44;78.53
38630;BME280;24384;51.988;4.644;2022-12-18T10:42:17;102663.91;;;-4.47;79.13
38630;BME280;24384;51.988;4.644;2022-12-18T10:44:42;102671.47;;;-4.50;79.31
38630;BME280;24384;51.988;4.644;2022-12-18T10:47:14;102661.94;;;-4.51;79.13
38630;BME280;24384;51.988;4.644;2022-12-18T10:49:47;102664.28;;;-4.41;80.00
38630;BME280;24384;51.988;4.644;2022-12-18T10:52:21;102677.84;;;-4.28;78.95
38630;BME280;24384;51.988;4.644;2022-12-18T10:54:57;102672.69;;;-4.28;78.86
38630;BME280;24384;51.988;4.644;2022-12-18T10:57:31;102663.00;;;-4.18;79.37
38630;BME280;24384;51.988;4.644;2022-12-18T10:59:58;102657.94;;;-4.16;78.95
38630;BME280;24384;51.988;4.644;2022-12-18T11:02:35;102649.41;;;-4.15;78.88
38630;BME280;24384;51.988;4.644;2022-12-18T11:05:02;102654.75;;;-4.12;79.25
38630;BME280;24384;51.988;4.644;2022-12-18T11:07:50;102659.63;;;-4.17;79.13
38630;BME280;24384;51.988;4.644;2022-12-18T11:10:20;102655.44;;;-4.15;79.03
38630;BME280;24384;51.988;4.644;2022-12-18T11:12:47;102648.50;;;-4.16;78.61
38630;BME280;24384;51.988;4.644;2022-12-18T11:15:23;102653.81;;;-3.98;79.57
38630;BME280;24384;51.988;4.644;2022-12-18T11:17:51;102666.88;;;-4.09;79.44
38630;BME280;24384;51.988;4.644;2022-12-18T11:20:34;102658.63;;;-4.04;78.90
38630;BME280;24384;51.988;4.644;2022-12-18T11:23:02;102651.78;;;-4.03;79.33
38630;BME280;24384;51.988;4.644;2022-12-18T11:25:28;102656.03;;;-3.89;80.35
38630;BME280;24384;51.988;4.644;2022-12-18T11:28:00;102643.31;;;-3.86;79.62
38630;BME280;24384;51.988;4.644;2022-12-18T11:33:00;102630.16;;;-3.74;78.60
38630;BME280;24384;51.988;4.644;2022-12-18T11:37:57;102619.88;;;-3.57;79.19
38630;BME280;24384;51.988;4.644;2022-12-18T11:40:33;102629.97;;;-3.46;79.20
38630;BME280;24384;51.988;4.644;2022-12-18T11:43:10;102611.84;;;-3.47;78.72
38630;BME280;24384;51.988;4.644;2022-12-18T11:45:47;102613.34;;;-3.51;79.08
38630;BME280;24384;51.988;4.644;2022-12-18T11:48:17;102613.03;;;-3.40;78.08
38630;BME280;24384;51.988;4.644;2022-12-18T11:51:00;102599.09;;;-3.44;79.08
38630;BME280;24384;51.988;4.644;2022-12-18T11:53:27;102578.28;;;-3.64;80.47
38630;BME280;24384;51.988;4.644;2022-12-18T12:01:44;102567.16;;;-3.46;80.03
38630;BME280;24384;51.988;4.644;2022-12-18T12:05:03;102562.50;;;-3.53;79.61
38630;BME280;24384;51.988;4.644;2022-12-18T12:10:54;102537.97;;;-3.62;78.90
38630;BME280;24384;51.988;4.644;2022-12-18T12:16:48;102532.34;;;-3.54;80.97
38630;BME280;24384;51.988;4.644;2022-12-18T12:32:37;102523.53;;;-3.42;79.81
38630;BME280;24384;51.988;4.644;2022-12-18T12:35:45;102510.88;;;-3.37;79.94
38630;BME280;24384;51.988;4.644;2022-12-18T12:38:17;102519.28;;;-3.41;79.29
38630;BME280;24384;51.988;4.644;2022-12-18T12:40:52;102522.19;;;-3.35;79.76
38630;BME280;24384;51.988;4.644;2022-12-18T12:43:38;102524.09;;;-3.31;79.18
38630;BME280;24384;51.988;4.644;2022-12-18T12:46:11;102510.00;;;-3.37;79.82
38630;BME280;24384;51.988;4.644;2022-12-18T12:51:23;102509.13;;;-3.38;80.86
38630;BME280;24384;51.988;4.644;2022-12-18T12:53:50;102515.22;;;-3.19;79.43
38630;BME280;24384;51.988;4.644;2022-12-18T12:56:18;102508.84;;;-3.26;79.58
38630;BME280;24384;51.988;4.644;2022-12-18T13:04:31;102501.69;;;-3.14;79.41
38630;BME280;24384;51.988;4.644;2022-12-18T13:09:33;102487.91;;;-3.14;79.79
38630;BME280;24384;51.988;4.644;2022-12-18T13:12:05;102480.63;;;-3.05;78.73
38630;BME280;24384;51.988;4.644;2022-12-18T13:14:53;102474.94;;;-3.16;79.38
38630;BME280;24384;51.988;4.644;2022-12-18T13:17:36;102469.78;;;-3.16;79.39
38630;BME280;24384;51.988;4.644;2022-12-18T13:20:11;102484.00;;;-3.06;78.87
38630;BME280;24384;51.988;4.644;2022-12-18T13:22:44;102474.94;;;-3.16;79.21
38630;BME280;24384;51.988;4.644;2022-12-18T13:28:16;102466.47;;;-3.13;79.58
38630;BME280;24384;51.988;4.644;2022-12-18T13:30:57;102460.34;;;-3.15;79.54
38630;BME280;24384;51.988;4.644;2022-12-18T13:36:27;102443.16;;;-3.15;80.53
38630;BME280;24384;51.988;4.644;2022-12-18T13:41:40;102442.94;;;-3.19;80.13
38630;BME280;24384;51.988;4.644;2022-12-18T13:44:31;102431.28;;;-3.11;80.25
38630;BME280;24384;51.988;4.644;2022-12-18T13:47:00;102423.31;;;-3.16;80.31
38630;BME280;24384;51.988;4.644;2022-12-18T13:49:36;102432.91;;;-3.13;80.47
38630;BME280;24384;51.988;4.644;2022-12-18T13:52:17;102419.94;;;-3.15;80.54
38630;BME280;24384;51.988;4.644;2022-12-18T13:54:54;102413.22;;;-3.11;80.58
38630;BME280;24384;51.988;4.644;2022-12-18T13:57:35;102424.41;;;-3.11;80.93
38630;BME280;24384;51.988;4.644;2022-12-18T14:02:45;102411.88;;;-3.03;79.83
38630;BME280;24384;51.988;4.644;2022-12-18T14:05:30;102408.19;;;-3.08;80.99
38630;BME280;24384;51.988;4.644;2022-12-18T14:08:00;102400.53;;;-3.07;80.19
38630;BME280;24384;51.988;4.644;2022-12-18T14:10:27;102396.47;;;-3.01;80.56
38630;BME280;24384;51.988;4.644;2022-12-18T14:12:53;102407.97;;;-3.13;80.69
38630;BME280;24384;51.988;4.644;2022-12-18T14:17:52;102395.44;;;-3.05;80.65
38630;BME280;24384;51.988;4.644;2022-12-18T14:20:21;102406.06;;;-2.99;80.15
38630;BME280;24384;51.988;4.644;2022-12-18T14:22:49;102400.81;;;-3.00;79.94
38630;BME280;24384;51.988;4.644;2022-12-18T14:25:26;102398.09;;;-3.03;80.50
38630;BME280;24384;51.988;4.644;2022-12-18T14:30:40;102368.13;;;-3.00;80.47
38630;BME280;24384;51.988;4.644;2022-12-18T14:36:04;102376.56;;;-3.04;80.53
38630;BME280;24384;51.988;4.644;2022-12-18T14:38:35;102376.88;;;-2.98;81.33
38630;BME280;24384;51.988;4.644;2022-12-18T14:41:03;102370.66;;;-3.01;81.05
38630;BME280;24384;51.988;4.644;2022-12-18T14:43:32;102356.56;;;-2.90;80.95
38630;BME280;24384;51.988;4.644;2022-12-18T14:45:58;102344.09;;;-2.99;80.73
38630;BME280;24384;51.988;4.644;2022-12-18T14:48:38;102351.91;;;-2.97;80.54
38630;BME280;24384;51.988;4.644;2022-12-18T14:53:41;102322.72;;;-2.96;80.33
38630;BME280;24384;51.988;4.644;2022-12-18T14:56:17;102318.34;;;-2.97;80.24
38630;BME280;24384;51.988;4.644;2022-12-18T14:59:06;102313.13;;;-2.99;80.53
38630;BME280;24384;51.988;4.644;2022-12-18T15:01:46;102319.22;;;-2.97;80.24
38630;BME280;24384;51.988;4.644;2022-12-18T15:04:26;102334.59;;;-3.00;80.39
38630;BME280;24384;51.988;4.644;2022-12-18T15:09:38;102329.34;;;-3.01;80.98
38630;BME280;24384;51.988;4.644;2022-12-18T15:12:05;102319.38;;;-2.94;80.40
38630;BME280;24384;51.988;4.644;2022-12-18T15:14:40;102323.59;;;-2.96;80.58
38630;BME280;24384;51.988;4.644;2022-12-18T15:17:19;102323.38;;;-3.00;80.73
38630;BME280;24384;51.988;4.644;2022-12-18T15:19:47;102316.72;;;-2.95;80.32
38630;BME280;24384;51.988;4.644;2022-12-18T15:22:29;102317.50;;;-2.98;80.87
38630;BME280;24384;51.988;4.644;2022-12-18T15:24:55;102318.22;;;-3.00;80.50
38630;BME280;24384;51.988;4.644;2022-12-18T15:27:35;102326.84;;;-3.00;80.58
38630;BME280;24384;51.988;4.644;2022-12-18T15:32:35;102321.81;;;-2.97;80.97
38630;BME280;24384;51.988;4.644;2022-12-18T15:37:34;102322.16;;;-2.89;80.78
38630;BME280;24384;51.988;4.644;2022-12-18T15:39:59;102320.34;;;-2.92;80.97
38630;BME280;24384;51.988;4.644;2022-12-18T15:42:24;102321.28;;;-2.90;81.13
38630;BME280;24384;51.988;4.644;2022-12-18T15:45:11;102307.72;;;-2.85;81.03
38630;BME280;24384;51.988;4.644;2022-12-18T15:47:37;102317.13;;;-2.86;80.60
38630;BME280;24384;51.988;4.644;2022-12-18T15:50:03;102312.06;;;-2.84;80.63
38630;BME280;24384;51.988;4.644;2022-12-18T15:52:28;102304.50;;;-2.80;81.08
38630;BME280;24384;51.988;4.644;2022-12-18T15:54:55;102308.81;;;-2.80;80.50